createdAt,value
2017-03-29T00:00:54.349Z,740.88
2017-03-29T00:01:54.330Z,740.88
2017-03-29T00:02:54.314Z,740.9
2017-03-29T00:03:54.300Z,740.92
2017-03-29T00:04:54.283Z,740.89
2017-03-29T00:05:54.268Z,740.87
2017-03-29T00:06:54.253Z,740.85
2017-03-29T00:07:54.236Z,740.86
2017-03-29T00:08:54.218Z,740.88
2017-03-29T00:09:54.203Z,740.89
2017-03-29T00:10:54.188Z,740.87
2017-03-29T00:11:54.173Z,740.86
2017-03-29T00:12:54.156Z,740.92
2017-03-29T00:13:54.139Z,740.91
2017-03-29T00:14:54.125Z,740.9
2017-03-29T00:15:54.108Z,740.86
2017-03-29T00:16:54.093Z,740.87
2017-03-29T00:17:54.077Z,740.91
2017-03-29T00:18:54.062Z,740.89
2017-03-29T00:19:54.047Z,740.9
2017-03-29T00:20:54.031Z,740.89
2017-03-29T00:21:54.015Z,740.9
2017-03-29T00:22:54.000Z,740.91
2017-03-29T00:23:53.983Z,740.93
2017-03-29T00:24:53.969Z,740.95
2017-03-29T00:25:53.954Z,740.95
2017-03-29T00:26:53.936Z,741
2017-03-29T00:27:53.922Z,740.95
2017-03-29T00:28:53.910Z,740.95
2017-03-29T00:29:53.890Z,740.96
2017-03-29T00:30:53.874Z,740.93
2017-03-29T00:31:53.860Z,740.95
2017-03-29T00:32:53.844Z,740.92
2017-03-29T00:33:53.829Z,740.91
2017-03-29T00:34:53.812Z,740.96
2017-03-29T00:35:53.798Z,740.86
2017-03-29T00:36:53.784Z,740.89
2017-03-29T00:37:53.767Z,740.89
2017-03-29T00:38:53.753Z,740.85
2017-03-29T00:39:53.738Z,740.92
2017-03-29T00:40:53.722Z,740.88
2017-03-29T00:41:53.706Z,740.86
2017-03-29T00:42:53.691Z,740.84
2017-03-29T00:43:53.677Z,740.81
2017-03-29T00:44:53.662Z,740.87
2017-03-29T00:45:53.646Z,740.82
2017-03-29T00:46:53.631Z,740.86
2017-03-29T00:47:53.616Z,740.9
2017-03-29T00:48:53.598Z,740.95
2017-03-29T00:49:53.583Z,740.95
2017-03-29T00:50:53.570Z,740.94
2017-03-29T00:51:53.554Z,740.94
2017-03-29T00:52:53.537Z,740.93
2017-03-29T00:53:53.523Z,740.91
2017-03-29T00:54:53.507Z,740.93
2017-03-29T00:55:53.494Z,740.93
2017-03-29T00:56:53.477Z,740.91
2017-03-29T00:57:53.462Z,740.88
2017-03-29T00:58:53.447Z,740.83
2017-03-29T00:59:53.430Z,740.9
2017-03-29T01:00:53.417Z,740.9
2017-03-29T01:01:53.401Z,740.87
2017-03-29T01:02:53.386Z,740.88
2017-03-29T01:03:53.370Z,740.9
2017-03-29T01:04:53.355Z,740.85
2017-03-29T01:05:53.341Z,740.85
2017-03-29T01:06:53.325Z,740.9
2017-03-29T01:07:53.308Z,740.89
2017-03-29T01:08:53.295Z,740.89
2017-03-29T01:09:53.305Z,740.92
2017-03-29T01:10:53.264Z,740.95
2017-03-29T01:11:53.248Z,740.91
2017-03-29T01:12:53.232Z,740.93
2017-03-29T01:13:53.215Z,740.86
2017-03-29T01:14:53.201Z,740.88
2017-03-29T01:15:53.185Z,740.92
2017-03-29T01:16:53.169Z,740.9
2017-03-29T01:17:53.154Z,740.83
2017-03-29T01:18:53.138Z,740.86
2017-03-29T01:19:53.121Z,740.9
2017-03-29T01:20:53.106Z,740.86
2017-03-29T01:21:53.090Z,740.82
2017-03-29T01:22:53.073Z,740.83
2017-03-29T01:23:53.057Z,740.86
2017-03-29T01:24:53.041Z,740.87
2017-03-29T01:25:53.025Z,740.84
2017-03-29T01:26:53.009Z,740.76
2017-03-29T01:27:52.995Z,740.81
2017-03-29T01:28:52.979Z,740.84
2017-03-29T01:29:52.963Z,740.82
2017-03-29T01:30:52.946Z,740.84
2017-03-29T01:31:52.935Z,740.79
2017-03-29T01:32:52.914Z,740.77
2017-03-29T01:33:52.898Z,740.75
2017-03-29T01:34:52.883Z,740.75
2017-03-29T01:35:52.866Z,740.75
2017-03-29T01:36:52.851Z,740.7
2017-03-29T01:37:52.835Z,740.72
2017-03-29T01:38:52.819Z,740.76
2017-03-29T01:39:52.805Z,740.8
2017-03-29T01:40:52.788Z,740.78
2017-03-29T01:41:52.773Z,740.74
2017-03-29T01:42:52.755Z,740.85
2017-03-29T01:43:52.740Z,740.77
2017-03-29T01:44:52.725Z,740.75
2017-03-29T01:45:52.710Z,740.77
2017-03-29T01:46:52.693Z,740.77
2017-03-29T01:47:52.676Z,740.77
2017-03-29T01:48:52.660Z,740.78
2017-03-29T01:49:52.645Z,740.83
2017-03-29T01:50:52.628Z,740.8
2017-03-29T01:51:52.613Z,740.77
2017-03-29T01:52:52.596Z,740.81
2017-03-29T01:53:52.582Z,740.84
2017-03-29T01:54:52.565Z,740.8
2017-03-29T01:55:52.549Z,740.8
2017-03-29T01:56:52.533Z,740.76
2017-03-29T01:57:52.517Z,740.81
2017-03-29T01:58:52.501Z,740.78
2017-03-29T01:59:52.485Z,740.75
2017-03-29T02:00:52.469Z,740.82
2017-03-29T02:01:52.453Z,740.83
2017-03-29T02:02:52.438Z,740.82
2017-03-29T02:03:52.423Z,740.76
2017-03-29T02:04:52.410Z,740.79
2017-03-29T02:05:52.391Z,740.73
2017-03-29T02:06:52.376Z,740.77
2017-03-29T02:07:52.361Z,740.75
2017-03-29T02:08:52.345Z,740.76
2017-03-29T02:09:52.329Z,740.77
2017-03-29T02:10:52.313Z,740.74
2017-03-29T02:11:52.298Z,740.74
2017-03-29T02:12:52.281Z,740.64
2017-03-29T02:13:52.266Z,740.77
2017-03-29T02:14:52.253Z,740.84
2017-03-29T02:15:52.234Z,740.78
2017-03-29T02:16:52.217Z,740.71
2017-03-29T02:17:52.202Z,740.77
2017-03-29T02:18:52.186Z,740.79
2017-03-29T02:19:52.170Z,740.78
2017-03-29T02:20:52.151Z,740.78
2017-03-29T02:21:52.136Z,740.72
2017-03-29T02:22:52.118Z,740.7
2017-03-29T02:23:52.102Z,740.71
2017-03-29T02:24:52.084Z,740.75
2017-03-29T02:25:52.068Z,740.71
2017-03-29T02:26:52.052Z,740.74
2017-03-29T02:27:52.036Z,740.69
2017-03-29T02:28:52.017Z,740.74
2017-03-29T02:29:52.001Z,740.75
2017-03-29T02:30:51.984Z,740.72
2017-03-29T02:31:51.968Z,740.73
2017-03-29T02:32:51.951Z,740.7
2017-03-29T02:33:51.935Z,740.67
2017-03-29T02:34:51.918Z,740.71
2017-03-29T02:35:51.902Z,740.68
2017-03-29T02:36:51.886Z,740.65
2017-03-29T02:37:51.869Z,740.65
2017-03-29T02:38:51.852Z,740.67
2017-03-29T02:39:51.837Z,740.65
2017-03-29T02:40:51.822Z,740.62
2017-03-29T02:41:51.807Z,740.68
2017-03-29T02:42:51.789Z,740.64
2017-03-29T02:43:51.774Z,740.69
2017-03-29T02:44:51.758Z,740.66
2017-03-29T02:45:51.742Z,740.71
2017-03-29T02:46:51.727Z,740.76
2017-03-29T02:47:51.712Z,740.73
2017-03-29T02:48:51.698Z,740.73
2017-03-29T02:49:51.711Z,740.72
2017-03-29T02:50:51.666Z,740.71
2017-03-29T02:51:51.650Z,740.71
2017-03-29T02:52:51.635Z,740.66
2017-03-29T02:53:51.619Z,740.69
2017-03-29T02:54:51.603Z,740.7
2017-03-29T02:55:51.587Z,740.73
2017-03-29T02:56:51.572Z,740.7
2017-03-29T02:57:51.557Z,740.72
2017-03-29T02:58:51.543Z,740.7
2017-03-29T02:59:51.526Z,740.7
2017-03-29T03:00:51.509Z,740.68
2017-03-29T03:01:51.494Z,740.68
2017-03-29T03:02:51.477Z,740.62
2017-03-29T03:03:51.462Z,740.65
2017-03-29T03:04:51.445Z,740.6
2017-03-29T03:05:51.430Z,740.58
2017-03-29T03:06:51.414Z,740.58
2017-03-29T03:07:51.398Z,740.64
2017-03-29T03:08:51.381Z,740.66
2017-03-29T03:09:51.367Z,740.67
2017-03-29T03:10:51.350Z,740.68
2017-03-29T03:11:51.335Z,740.73
2017-03-29T03:12:51.319Z,740.61
2017-03-29T03:13:51.303Z,740.62
2017-03-29T03:14:51.287Z,740.61
2017-03-29T03:15:51.273Z,740.63
2017-03-29T03:16:51.256Z,740.62
2017-03-29T03:17:51.242Z,740.67
2017-03-29T03:18:51.225Z,740.66
2017-03-29T03:19:51.209Z,740.66
2017-03-29T03:20:51.193Z,740.64
2017-03-29T03:21:51.177Z,740.66
2017-03-29T03:22:51.161Z,740.61
2017-03-29T03:23:51.145Z,740.63
2017-03-29T03:24:51.128Z,740.63
2017-03-29T03:25:51.113Z,740.61
2017-03-29T03:26:51.096Z,740.66
2017-03-29T03:27:51.081Z,740.68
2017-03-29T03:28:51.065Z,740.65
2017-03-29T03:29:51.047Z,740.66
2017-03-29T03:30:51.031Z,740.62
2017-03-29T03:31:51.017Z,740.65
2017-03-29T03:32:51.001Z,740.64
2017-03-29T03:33:50.984Z,740.65
2017-03-29T03:34:50.968Z,740.64
2017-03-29T03:35:50.953Z,740.62
2017-03-29T03:36:50.935Z,740.65
2017-03-29T03:37:50.919Z,740.67
2017-03-29T03:38:50.904Z,740.6
2017-03-29T03:39:50.890Z,740.61
2017-03-29T03:40:50.873Z,740.61
2017-03-29T03:41:50.857Z,740.66
2017-03-29T03:42:50.841Z,740.64
2017-03-29T03:43:50.826Z,740.63
2017-03-29T03:44:50.810Z,740.57
2017-03-29T03:45:50.793Z,740.56
2017-03-29T03:46:50.779Z,740.58
2017-03-29T03:47:50.762Z,740.57
2017-03-29T03:48:50.748Z,740.59
2017-03-29T03:49:50.731Z,740.58
2017-03-29T03:50:50.717Z,740.57
2017-03-29T03:51:50.700Z,740.59
2017-03-29T03:52:50.685Z,740.57
2017-03-29T03:53:50.669Z,740.59
2017-03-29T03:54:50.654Z,740.58
2017-03-29T03:55:50.637Z,740.54
2017-03-29T03:56:50.622Z,740.64
2017-03-29T03:57:50.606Z,740.65
2017-03-29T03:58:50.591Z,740.58
2017-03-29T03:59:50.575Z,740.62
2017-03-29T04:00:50.559Z,740.61
2017-03-29T04:01:50.543Z,740.62
2017-03-29T04:02:50.527Z,740.64
2017-03-29T04:03:50.512Z,740.65
2017-03-29T04:04:50.497Z,740.64
2017-03-29T04:05:50.481Z,740.65
2017-03-29T04:06:50.463Z,740.64
2017-03-29T04:07:50.448Z,740.59
2017-03-29T04:08:50.438Z,740.64
2017-03-29T04:09:50.416Z,740.58
2017-03-29T04:10:50.400Z,740.63
2017-03-29T04:11:50.384Z,740.63
2017-03-29T04:12:50.368Z,740.63
2017-03-29T04:13:50.351Z,740.64
2017-03-29T04:14:50.336Z,740.59
2017-03-29T04:15:50.320Z,740.61
2017-03-29T04:16:50.304Z,740.58
2017-03-29T04:17:50.287Z,740.6
2017-03-29T04:18:50.271Z,740.62
2017-03-29T04:19:50.256Z,740.6
2017-03-29T04:20:50.239Z,740.58
2017-03-29T04:21:50.223Z,740.56
2017-03-29T04:22:50.206Z,740.59
2017-03-29T04:23:50.191Z,740.57
2017-03-29T04:24:50.174Z,740.6
2017-03-29T04:25:50.159Z,740.57
2017-03-29T04:26:50.144Z,740.59
2017-03-29T04:27:50.128Z,740.61
2017-03-29T04:28:50.113Z,740.61
2017-03-29T04:29:50.096Z,740.61
2017-03-29T04:30:50.081Z,740.66
2017-03-29T04:31:50.065Z,740.62
2017-03-29T04:32:50.048Z,740.61
2017-03-29T04:33:50.033Z,740.6
2017-03-29T04:34:50.018Z,740.55
2017-03-29T04:35:50.002Z,740.68
2017-03-29T04:36:49.985Z,740.7
2017-03-29T04:37:49.970Z,740.68
2017-03-29T04:38:49.954Z,740.65
2017-03-29T04:39:49.937Z,740.64
2017-03-29T04:40:49.922Z,740.65
2017-03-29T04:41:49.906Z,740.66
2017-03-29T04:42:49.892Z,740.63
2017-03-29T04:43:49.872Z,740.62
2017-03-29T04:44:49.855Z,740.64
2017-03-29T04:45:49.840Z,740.63
2017-03-29T04:46:49.822Z,740.7
2017-03-29T04:47:49.805Z,740.69
2017-03-29T04:48:49.789Z,740.71
2017-03-29T04:49:49.773Z,740.73
2017-03-29T04:50:49.757Z,740.71
2017-03-29T04:51:49.739Z,740.73
2017-03-29T04:52:49.725Z,740.68
2017-03-29T04:53:49.707Z,740.7
2017-03-29T04:54:49.692Z,740.68
2017-03-29T04:55:49.675Z,740.76
2017-03-29T04:56:49.660Z,740.77
2017-03-29T04:57:49.643Z,740.74
2017-03-29T04:58:49.626Z,740.69
2017-03-29T04:59:49.611Z,740.77
2017-03-29T05:00:49.594Z,740.77
2017-03-29T05:01:49.579Z,740.74
2017-03-29T05:02:49.563Z,740.75
2017-03-29T05:03:49.547Z,740.76
2017-03-29T05:04:49.531Z,740.75
2017-03-29T05:05:49.515Z,740.77
2017-03-29T05:06:49.499Z,740.74
2017-03-29T05:07:49.485Z,740.74
2017-03-29T05:08:49.468Z,740.75
2017-03-29T05:09:49.452Z,740.74
2017-03-29T05:10:49.437Z,740.78
2017-03-29T05:11:49.420Z,740.77
2017-03-29T05:12:49.406Z,740.74
2017-03-29T05:13:49.391Z,740.77
2017-03-29T05:14:49.374Z,740.77
2017-03-29T05:15:49.358Z,740.79
2017-03-29T05:16:49.343Z,740.75
2017-03-29T05:17:49.327Z,740.75
2017-03-29T05:18:49.313Z,740.78
2017-03-29T05:19:49.297Z,740.75
2017-03-29T05:20:49.282Z,740.76
2017-03-29T05:21:49.268Z,740.78
2017-03-29T05:22:49.251Z,740.71
2017-03-29T05:23:49.237Z,740.78
2017-03-29T05:24:49.221Z,740.77
2017-03-29T05:25:49.208Z,740.77
2017-03-29T05:26:49.191Z,740.79
2017-03-29T05:27:49.177Z,740.78
2017-03-29T05:28:49.161Z,740.81
2017-03-29T05:29:49.148Z,740.81
2017-03-29T05:30:49.131Z,740.8
2017-03-29T05:31:49.142Z,740.77
2017-03-29T05:32:49.102Z,740.78
2017-03-29T05:33:49.086Z,740.76
2017-03-29T05:34:49.070Z,740.77
2017-03-29T05:35:49.056Z,740.76
2017-03-29T05:36:49.042Z,740.78
2017-03-29T05:37:49.025Z,740.82
2017-03-29T05:38:49.009Z,740.82
2017-03-29T05:39:48.995Z,740.89
2017-03-29T05:40:48.978Z,740.85
2017-03-29T05:41:48.961Z,740.83
2017-03-29T05:42:48.946Z,740.85
2017-03-29T05:43:48.929Z,740.85
2017-03-29T05:44:48.913Z,740.9
2017-03-29T05:45:48.898Z,740.83
2017-03-29T05:46:48.882Z,740.88
2017-03-29T05:47:48.866Z,740.92
2017-03-29T05:48:48.850Z,740.89
2017-03-29T05:49:48.833Z,740.86
2017-03-29T05:50:48.817Z,740.85
2017-03-29T05:51:49.004Z,740.82
2017-03-29T05:52:48.988Z,740.85
2017-03-29T05:53:48.770Z,740.86
2017-03-29T05:54:48.754Z,740.9
2017-03-29T05:55:48.739Z,740.92
2017-03-29T05:56:48.723Z,740.9
2017-03-29T05:57:48.707Z,740.88
2017-03-29T05:58:48.692Z,740.91
2017-03-29T05:59:48.675Z,740.92
2017-03-29T06:00:48.659Z,740.97
2017-03-29T06:01:48.644Z,740.99
2017-03-29T06:02:48.629Z,741
2017-03-29T06:03:48.612Z,741
2017-03-29T06:04:48.597Z,741
2017-03-29T06:05:48.582Z,741
2017-03-29T06:06:48.564Z,740.98
2017-03-29T06:07:48.549Z,740.98
2017-03-29T06:08:48.534Z,741
2017-03-29T06:09:48.520Z,740.97
2017-03-29T06:10:48.505Z,740.98
2017-03-29T06:11:48.488Z,741
2017-03-29T06:12:48.473Z,740.99
2017-03-29T06:13:48.458Z,740.97
2017-03-29T06:14:48.442Z,740.99
2017-03-29T06:15:48.426Z,740.99
2017-03-29T06:16:48.411Z,741.01
2017-03-29T06:17:48.395Z,741.04
2017-03-29T06:18:48.380Z,741.03
2017-03-29T06:19:48.364Z,741.03
2017-03-29T06:20:48.350Z,741.04
2017-03-29T06:21:48.334Z,741.08
2017-03-29T06:22:48.320Z,741.05
2017-03-29T06:23:48.305Z,741.08
2017-03-29T06:24:48.289Z,741.07
2017-03-29T06:25:48.274Z,741.04
2017-03-29T06:26:48.261Z,741.07
2017-03-29T06:27:48.449Z,741.07
2017-03-29T06:28:48.231Z,741.05
2017-03-29T06:29:48.217Z,741.04
2017-03-29T06:30:48.202Z,741.04
2017-03-29T06:31:48.188Z,741.07
2017-03-29T06:32:48.173Z,741.05
2017-03-29T06:33:48.158Z,741.1
2017-03-29T06:34:48.144Z,741.09
2017-03-29T06:35:48.131Z,741.1
2017-03-29T06:36:48.116Z,741.03
2017-03-29T06:37:48.102Z,741.09
2017-03-29T06:38:48.089Z,741.14
2017-03-29T06:39:48.073Z,741.16
2017-03-29T06:40:48.060Z,741.15
2017-03-29T06:41:48.046Z,741.17
2017-03-29T06:42:48.033Z,741.13
2017-03-29T06:43:48.019Z,741.15
2017-03-29T06:44:48.005Z,741.14
2017-03-29T06:45:47.991Z,741.14
2017-03-29T06:46:47.978Z,741.18
2017-03-29T06:47:47.964Z,741.15
2017-03-29T06:48:47.951Z,741.18
2017-03-29T06:49:47.938Z,741.16
2017-03-29T06:50:47.923Z,741.17
2017-03-29T06:51:47.911Z,741.19
2017-03-29T06:52:47.898Z,741.21
2017-03-29T06:53:47.886Z,741.21
2017-03-29T06:54:47.872Z,741.23
2017-03-29T06:55:47.861Z,741.21
2017-03-29T06:56:47.846Z,741.15
2017-03-29T06:57:47.833Z,741.18
2017-03-29T06:58:47.820Z,741.22
2017-03-29T06:59:47.810Z,741.25
2017-03-29T07:00:47.797Z,741.25
2017-03-29T07:01:47.785Z,741.29
2017-03-29T07:02:47.774Z,741.25
2017-03-29T07:03:47.806Z,741.25
2017-03-29T07:04:47.777Z,741.23
2017-03-29T07:05:47.738Z,741.23
2017-03-29T07:06:47.726Z,741.23
2017-03-29T07:07:47.717Z,741.31
2017-03-29T07:08:47.703Z,741.33
2017-03-29T07:09:47.691Z,741.36
2017-03-29T07:10:47.678Z,741.34
2017-03-29T07:11:47.667Z,741.37
2017-03-29T07:12:47.656Z,741.33
2017-03-29T07:13:47.645Z,741.29
2017-03-29T07:14:47.633Z,741.35
2017-03-29T07:15:47.621Z,741.38
2017-03-29T07:16:47.607Z,741.41
2017-03-29T07:17:47.598Z,741.38
2017-03-29T07:18:47.586Z,741.39
2017-03-29T07:19:47.574Z,741.44
2017-03-29T07:20:47.564Z,741.34
2017-03-29T07:21:47.553Z,741.38
2017-03-29T07:22:47.542Z,741.36
2017-03-29T07:23:47.527Z,741.39
2017-03-29T07:24:47.518Z,741.32
2017-03-29T07:25:47.508Z,741.32
2017-03-29T07:26:47.495Z,741.26
2017-03-29T07:27:47.484Z,741.36
2017-03-29T07:28:47.472Z,741.4
2017-03-29T07:29:47.462Z,741.35
2017-03-29T07:30:47.448Z,741.36
2017-03-29T07:31:47.436Z,741.3
2017-03-29T07:32:47.424Z,741.4
2017-03-29T07:33:47.413Z,741.47
2017-03-29T07:34:47.401Z,741.48
2017-03-29T07:38:47.352Z,741.49
2017-03-29T07:39:47.340Z,741.52
2017-03-29T07:40:47.330Z,741.53
2017-03-29T07:41:47.316Z,741.56
2017-03-29T07:42:47.306Z,741.46
2017-03-29T07:43:47.294Z,741.57
2017-03-29T07:44:47.283Z,741.55
2017-03-29T07:45:47.272Z,741.5
2017-03-29T07:46:47.260Z,741.53
2017-03-29T07:47:47.250Z,741.54
2017-03-29T07:48:47.238Z,741.67
2017-03-29T07:49:47.228Z,741.58
2017-03-29T07:50:47.216Z,741.57
2017-03-29T07:51:47.206Z,741.53
2017-03-29T07:52:47.195Z,741.5
2017-03-29T07:53:47.184Z,741.54
2017-03-29T07:54:47.175Z,741.49
2017-03-29T07:55:47.165Z,741.49
2017-03-29T07:56:47.153Z,741.49
2017-03-29T07:57:47.142Z,741.45
2017-03-29T07:58:47.132Z,741.45
2017-03-29T07:59:47.122Z,741.53
2017-03-29T08:00:47.112Z,741.54
2017-03-29T08:01:47.101Z,741.59
2017-03-29T08:02:47.092Z,741.62
2017-03-29T08:03:47.080Z,741.5
2017-03-29T08:04:47.071Z,741.5
2017-03-29T08:05:47.060Z,741.52
2017-03-29T08:06:47.050Z,741.55
2017-03-29T08:07:47.039Z,741.59
2017-03-29T08:08:47.030Z,741.6
2017-03-29T08:09:47.020Z,741.59
2017-03-29T08:10:47.013Z,741.59
2017-03-29T08:11:47.000Z,741.6
2017-03-29T08:12:46.991Z,741.68
2017-03-29T08:13:46.980Z,741.67
2017-03-29T08:14:46.975Z,741.66
2017-03-29T08:15:46.959Z,741.67
2017-03-29T08:16:46.951Z,741.63
2017-03-29T08:17:46.940Z,741.62
2017-03-29T08:18:46.930Z,741.73
2017-03-29T08:19:46.921Z,741.7
2017-03-29T08:20:46.911Z,741.7
2017-03-29T08:21:46.902Z,741.71
2017-03-29T08:22:46.894Z,741.73
2017-03-29T08:23:46.883Z,741.72
2017-03-29T08:24:46.875Z,741.73
2017-03-29T08:25:46.864Z,741.73
2017-03-29T08:26:46.856Z,741.73
2017-03-29T08:27:46.847Z,741.75
2017-03-29T08:28:46.838Z,741.73
2017-03-29T08:29:46.827Z,741.78
2017-03-29T08:30:46.820Z,741.8
2017-03-29T08:31:46.811Z,741.8
2017-03-29T08:32:46.801Z,741.78
2017-03-29T08:33:46.793Z,741.8
2017-03-29T08:34:46.784Z,741.84
2017-03-29T08:35:46.776Z,741.82
2017-03-29T08:36:46.766Z,741.78
2017-03-29T08:37:46.757Z,741.82
2017-03-29T08:38:46.747Z,741.79
2017-03-29T08:39:46.737Z,741.83
2017-03-29T08:40:46.727Z,741.8
2017-03-29T08:41:46.717Z,741.8
2017-03-29T08:42:46.708Z,741.86
2017-03-29T08:43:46.697Z,741.83
2017-03-29T08:44:46.687Z,741.81
2017-03-29T08:45:46.676Z,741.79
2017-03-29T08:46:46.668Z,741.8
2017-03-29T08:47:46.654Z,741.8
2017-03-29T08:48:46.643Z,741.83
2017-03-29T08:49:46.634Z,741.75
2017-03-29T08:50:46.623Z,741.81
2017-03-29T08:51:46.611Z,741.78
2017-03-29T08:52:46.604Z,741.77
2017-03-29T08:53:46.589Z,741.79
2017-03-29T08:54:46.579Z,741.73
2017-03-29T08:55:46.567Z,741.8
2017-03-29T08:56:46.558Z,741.79
2017-03-29T08:57:46.546Z,741.8
2017-03-29T08:58:46.534Z,741.8
2017-03-29T08:59:46.524Z,741.83
2017-03-29T09:00:46.513Z,741.8
2017-03-29T09:01:46.503Z,741.73
2017-03-29T09:02:46.490Z,741.81
2017-03-29T09:03:46.481Z,741.8
2017-03-29T09:04:46.469Z,741.74
2017-03-29T09:05:46.457Z,741.77
2017-03-29T09:06:46.448Z,741.81
2017-03-29T09:07:46.437Z,741.82
2017-03-29T09:08:46.426Z,741.82
2017-03-29T09:09:46.415Z,741.82
2017-03-29T09:10:46.403Z,741.82
2017-03-29T09:11:46.394Z,741.89
2017-03-29T09:12:46.382Z,741.85
2017-03-29T09:13:46.370Z,741.88
2017-03-29T09:14:46.360Z,741.89
2017-03-29T09:15:46.350Z,741.91
2017-03-29T09:16:46.336Z,741.9
2017-03-29T09:17:46.326Z,741.93
2017-03-29T09:18:46.315Z,741.98
2017-03-29T09:19:46.304Z,741.97
2017-03-29T09:20:46.293Z,741.97
2017-03-29T09:21:46.281Z,741.91
2017-03-29T09:22:46.270Z,741.96
2017-03-29T09:23:46.258Z,741.97
2017-03-29T09:24:46.244Z,741.96
2017-03-29T09:25:46.235Z,741.97
2017-03-29T09:26:46.221Z,741.98
2017-03-29T09:27:46.210Z,741.95
2017-03-29T09:28:46.198Z,741.99
2017-03-29T09:29:46.186Z,741.99
2017-03-29T09:30:46.174Z,742.02
2017-03-29T09:31:46.163Z,742
2017-03-29T09:32:46.151Z,742
2017-03-29T09:33:46.138Z,742.02
2017-03-29T09:34:46.126Z,742.02
2017-03-29T09:35:46.115Z,742.04
2017-03-29T09:36:46.103Z,741.97
2017-03-29T09:37:46.092Z,741.98
2017-03-29T09:38:46.078Z,742
2017-03-29T09:39:46.067Z,741.96
2017-03-29T09:40:46.056Z,741.92
2017-03-29T09:41:46.044Z,741.93
2017-03-29T09:42:46.031Z,741.91
2017-03-29T09:43:46.020Z,741.95
2017-03-29T09:44:46.008Z,741.93
2017-03-29T09:45:45.996Z,741.98
2017-03-29T09:46:45.983Z,741.88
2017-03-29T09:47:45.972Z,741.98
2017-03-29T09:48:45.960Z,741.98
2017-03-29T09:49:45.947Z,742.01
2017-03-29T09:50:45.934Z,741.98
2017-03-29T09:51:45.923Z,741.96
2017-03-29T09:52:45.909Z,741.98
2017-03-29T09:53:45.896Z,742.01
2017-03-29T09:54:45.883Z,742
2017-03-29T09:55:45.871Z,741.91
2017-03-29T09:56:45.859Z,741.96
2017-03-29T09:57:45.883Z,741.99
2017-03-29T09:58:45.832Z,742.03
2017-03-29T09:59:45.822Z,742.05
2017-03-29T10:00:45.808Z,742.09
2017-03-29T10:01:45.796Z,742.07
2017-03-29T10:02:45.789Z,742.04
2017-03-29T10:03:45.773Z,742.07
2017-03-29T10:04:45.759Z,742.05
2017-03-29T10:05:45.747Z,742.12
2017-03-29T10:06:45.736Z,742.06
2017-03-29T10:07:45.723Z,742.06
2017-03-29T10:08:45.712Z,742.09
2017-03-29T10:09:45.702Z,742.12
2017-03-29T10:10:45.692Z,742.04
2017-03-29T10:11:45.680Z,742.12
2017-03-29T10:12:45.670Z,742.13
2017-03-29T10:13:45.659Z,742.02
2017-03-29T10:14:45.649Z,742.01
2017-03-29T10:15:45.637Z,742.03
2017-03-29T10:16:45.628Z,742.04
2017-03-29T10:17:45.618Z,741.95
2017-03-29T10:18:45.607Z,741.96
2017-03-29T10:19:45.598Z,741.9
2017-03-29T10:20:45.588Z,741.96
2017-03-29T10:21:45.579Z,741.97
2017-03-29T10:22:45.568Z,742.01
2017-03-29T10:23:45.557Z,742.1
2017-03-29T10:24:45.548Z,742.09
2017-03-29T10:25:45.537Z,741.97
2017-03-29T10:26:45.526Z,742.12
2017-03-29T10:27:45.515Z,742.01
2017-03-29T10:28:45.504Z,742.1
2017-03-29T10:29:45.493Z,742.08
2017-03-29T10:30:45.483Z,742.08
2017-03-29T10:31:45.471Z,742.11
2017-03-29T10:32:45.461Z,742.11
2017-03-29T10:33:45.448Z,742.04
2017-03-29T10:34:45.437Z,742.01
2017-03-29T10:35:45.425Z,742.11
2017-03-29T10:36:45.414Z,742.08
2017-03-29T10:37:45.402Z,742.03
2017-03-29T10:38:45.391Z,742.06
2017-03-29T10:39:45.381Z,742.01
2017-03-29T10:40:45.368Z,741.99
2017-03-29T10:41:45.358Z,741.99
2017-03-29T10:42:45.347Z,742
2017-03-29T10:43:45.334Z,742.05
2017-03-29T10:44:45.324Z,742.07
2017-03-29T10:45:45.312Z,742.02
2017-03-29T10:46:45.303Z,742.09
2017-03-29T10:47:45.290Z,742.1
2017-03-29T10:48:45.279Z,742.08
2017-03-29T10:49:45.269Z,742.09
2017-03-29T10:50:45.260Z,742.02
2017-03-29T10:51:45.249Z,742.04
2017-03-29T10:52:45.239Z,742.07
2017-03-29T10:53:45.228Z,742.04
2017-03-29T10:54:45.219Z,742.07
2017-03-29T10:55:45.206Z,742.08
2017-03-29T10:56:45.198Z,742.01
2017-03-29T10:57:45.188Z,741.93
2017-03-29T10:58:45.177Z,741.98
2017-03-29T10:59:45.165Z,742.02
2017-03-29T11:00:45.155Z,742.05
2017-03-29T11:01:45.143Z,741.98
2017-03-29T11:02:45.132Z,741.99
2017-03-29T11:03:45.119Z,741.99
2017-03-29T11:04:45.109Z,742.01
2017-03-29T11:05:45.097Z,742.04
2017-03-29T11:06:45.085Z,742.03
2017-03-29T11:07:45.076Z,741.98
2017-03-29T11:08:45.059Z,741.92
2017-03-29T11:09:45.048Z,741.98
2017-03-29T11:10:45.036Z,742.02
2017-03-29T11:11:45.024Z,741.96
2017-03-29T11:12:45.011Z,741.99
2017-03-29T11:13:44.998Z,742.08
2017-03-29T11:14:44.986Z,742.11
2017-03-29T11:15:44.973Z,742.09
2017-03-29T11:16:44.961Z,742.14
2017-03-29T11:17:44.946Z,742.2
2017-03-29T11:18:44.935Z,742.16
2017-03-29T11:19:44.922Z,742.11
2017-03-29T11:20:44.909Z,741.99
2017-03-29T11:21:44.899Z,742.02
2017-03-29T11:22:44.886Z,741.89
2017-03-29T11:23:44.875Z,741.94
2017-03-29T11:24:44.863Z,741.95
2017-03-29T11:25:44.852Z,741.92
2017-03-29T11:26:44.839Z,742
2017-03-29T11:27:44.827Z,741.92
2017-03-29T11:28:44.815Z,741.94
2017-03-29T11:29:44.806Z,741.91
2017-03-29T11:30:44.794Z,742.04
2017-03-29T11:31:44.783Z,741.98
2017-03-29T11:32:44.770Z,741.98
2017-03-29T11:33:44.759Z,742.04
2017-03-29T11:34:44.748Z,742.01
2017-03-29T11:35:44.738Z,742.01
2017-03-29T11:36:44.726Z,742.05
2017-03-29T11:37:44.716Z,742.06
2017-03-29T11:38:44.706Z,742.02
2017-03-29T11:39:44.694Z,741.98
2017-03-29T11:40:44.684Z,741.99
2017-03-29T11:41:44.674Z,742.05
2017-03-29T11:42:44.661Z,741.92
2017-03-29T11:43:44.651Z,741.92
2017-03-29T11:44:44.641Z,741.94
2017-03-29T11:45:44.630Z,741.89
2017-03-29T11:46:44.618Z,741.87
2017-03-29T11:47:44.607Z,741.98
2017-03-29T11:48:44.595Z,741.96
2017-03-29T11:49:44.586Z,741.94
2017-03-29T11:50:44.575Z,742
2017-03-29T11:51:44.562Z,741.97
2017-03-29T11:52:44.552Z,741.97
2017-03-29T11:53:44.540Z,741.98
2017-03-29T11:54:44.529Z,741.94
2017-03-29T11:55:44.518Z,741.98
2017-03-29T11:56:44.507Z,741.94
2017-03-29T11:57:44.497Z,741.96
2017-03-29T11:58:44.484Z,742
2017-03-29T11:59:44.478Z,742.02
2017-03-29T12:00:44.465Z,742.02
2017-03-29T12:01:44.454Z,741.95
2017-03-29T12:02:44.443Z,742.03
2017-03-29T12:03:44.433Z,741.97
2017-03-29T12:04:44.423Z,742.05
2017-03-29T12:05:44.413Z,742.02
2017-03-29T12:06:44.402Z,741.92
2017-03-29T12:07:44.392Z,741.93
2017-03-29T12:08:44.380Z,741.82
2017-03-29T12:09:44.370Z,741.86
2017-03-29T12:10:44.360Z,741.91
2017-03-29T12:11:44.351Z,741.83
2017-03-29T12:12:44.339Z,741.83
2017-03-29T12:13:44.329Z,741.79
2017-03-29T12:14:44.319Z,741.8
2017-03-29T12:15:44.307Z,741.66
2017-03-29T12:16:44.295Z,741.89
2017-03-29T12:17:44.285Z,741.88
2017-03-29T12:18:44.274Z,741.81
2017-03-29T12:19:44.263Z,741.85
2017-03-29T12:20:44.252Z,741.8
2017-03-29T12:21:44.242Z,741.93
2017-03-29T12:22:44.231Z,741.85
2017-03-29T12:23:44.217Z,741.91
2017-03-29T12:24:44.208Z,741.88
2017-03-29T12:25:44.198Z,741.88
2017-03-29T12:26:44.187Z,741.83
2017-03-29T12:27:44.177Z,741.9
2017-03-29T12:28:44.168Z,741.89
2017-03-29T12:29:44.159Z,741.9
2017-03-29T12:30:44.147Z,742
2017-03-29T12:31:44.139Z,741.88
2017-03-29T12:32:44.128Z,741.78
2017-03-29T12:33:44.118Z,741.75
2017-03-29T12:34:44.109Z,741.86
2017-03-29T12:35:44.098Z,741.85